Orbital elements of FENGYUN 1C DEB
| Launched | 9 May 1999 |
| Flight ended | – |
| Launch site | Taiyuan Space Center, PRC |
| Owner | People's Republic of China |
| NORAD ID | 31092 |
| Date fetched |
Epoch osculation |
Inc. [°] |
Ecc. | RA asc node [hr] |
Arg Peri. [°] |
Mean anom [°] |
Mean motion [rev/day] |
Abs. mag |
| Date fetched |
Epoch osculation |
Inc. [°] |
Ecc. | RA asc node [hr] |
Arg Peri. [°] |
Mean anom [°] |
Mean motion [rev/day] |
Abs. mag |
| 2026 May 05 17:57 | 2026 May 03 05:50:51 | 99.7275 | 0.03290 | 16.0105 | 146.9986 | 215.2160 | 13.46817 | – |
| 2026 May 04 17:57 | 2026 Apr 27 07:12:41 | 99.7272 | 0.03290 | 15.6251 | 161.6077 | 215.2160 | 13.46817 | – |
| 2026 May 03 17:57 | 2026 Apr 27 07:12:41 | 99.7272 | 0.03290 | 15.6251 | 161.6077 | 215.2160 | 13.46817 | – |
| 2026 May 02 17:57 | 2026 Apr 27 07:12:41 | 99.7272 | 0.03290 | 15.6251 | 161.6077 | 215.2160 | 13.46817 | – |
| 2026 May 01 17:56 | 2026 Apr 27 07:12:41 | 99.7272 | 0.03290 | 15.6251 | 161.6077 | 215.2160 | 13.46817 | – |
| 2026 Apr 30 17:56 | 2026 Apr 27 07:12:41 | 99.7272 | 0.03290 | 15.6251 | 161.6077 | 215.2160 | 13.46817 | – |
| 2026 Apr 29 17:57 | 2026 Apr 21 21:03:16 | 99.7259 | 0.03287 | 15.2733 | 174.9207 | 215.2160 | 13.46817 | – |
| 2026 Apr 28 17:56 | 2026 Apr 21 21:03:16 | 99.7259 | 0.03287 | 15.2733 | 174.9207 | 215.2160 | 13.46817 | – |
| 2026 Apr 27 17:58 | 2026 Apr 21 21:03:16 | 99.7259 | 0.03287 | 15.2733 | 174.9207 | 215.2160 | 13.46817 | – |
| 2026 Apr 26 17:58 | 2026 Apr 21 21:03:16 | 99.7259 | 0.03287 | 15.2733 | 174.9207 | 215.2160 | 13.46817 | – |
| 2026 Apr 25 17:58 | 2026 Apr 21 21:03:16 | 99.7259 | 0.03287 | 15.2733 | 174.9207 | 215.2160 | 13.46817 | – |
| 2026 Apr 24 17:59 | 2026 Apr 21 21:03:16 | 99.7259 | 0.03287 | 15.2733 | 174.9207 | 215.2160 | 13.46817 | – |
| 2026 Apr 23 17:57 | 2026 Apr 16 01:58:54 | 99.7246 | 0.03285 | 14.8975 | 189.2027 | 215.2160 | 13.46817 | – |
| 2026 Apr 22 17:57 | 2026 Apr 16 01:58:54 | 99.7246 | 0.03285 | 14.8975 | 189.2027 | 215.2160 | 13.46817 | – |
| 2026 Apr 21 17:57 | 2026 Apr 16 01:58:54 | 99.7246 | 0.03285 | 14.8975 | 189.2027 | 215.2160 | 13.46817 | – |
| 2026 Apr 20 17:57 | 2026 Apr 16 01:58:54 | 99.7246 | 0.03285 | 14.8975 | 189.2027 | 215.2160 | 13.46817 | – |
| 2026 Apr 19 17:58 | 2026 Apr 16 01:58:54 | 99.7246 | 0.03285 | 14.8975 | 189.2027 | 215.2160 | 13.46817 | – |
| 2026 Apr 18 17:56 | 2026 Apr 13 00:52:44 | 99.7239 | 0.03284 | 14.7000 | 196.7079 | 215.2160 | 13.46817 | – |
| 2026 Apr 16 17:57 | 2026 Apr 13 00:52:44 | 99.7239 | 0.03284 | 14.7000 | 196.7079 | 215.2160 | 13.46817 | – |
| 2026 Apr 14 17:57 | 2026 Apr 13 00:52:44 | 99.7239 | 0.03284 | 14.7000 | 196.7079 | 215.2160 | 13.46817 | – |
| 2026 Apr 13 17:57 | 2026 Apr 13 00:52:44 | 99.7239 | 0.03284 | 14.7000 | 196.7079 | 215.2160 | 13.46817 | – |
| 2026 Apr 12 17:57 | 2026 Apr 08 06:46:01 | 99.7236 | 0.03281 | 14.3917 | 208.4153 | 215.2160 | 13.46817 | – |
| 2026 Apr 11 17:57 | 2026 Apr 08 06:46:01 | 99.7236 | 0.03281 | 14.3917 | 208.4153 | 215.2160 | 13.46817 | – |
| 2026 Apr 10 17:58 | 2026 Apr 08 06:46:01 | 99.7236 | 0.03281 | 14.3917 | 208.4153 | 215.2160 | 13.46817 | – |
| 2026 Apr 09 18:01 | 2026 Apr 08 06:46:01 | 99.7236 | 0.03281 | 14.3917 | 208.4153 | 215.2160 | 13.46817 | – |
| 2026 Apr 08 17:57 | 2026 Apr 08 06:46:01 | 99.7236 | 0.03281 | 14.3917 | 208.4153 | 215.2160 | 13.46817 | – |